Hestrud (Nord, France) - 208 m
Donnes mto: Actuelle jeudi, 24/06/2021 03:58
Date Horaire Temp Out Serre Temp. E. min Temp. E. max Temp. Sol 1 Hum Out Hum. Sol 1 Press Rain Wind Dir Dir Solar Ev.Tr. UV Hi Solar Rad Dew Point Windchill Wind (Gust)
24/06/2021 03:58 12,2 C 13,9 C 12,2 C 12,2 C 12,2 C 94 % 85 cb 1020,1 hPa 0,0 mm 3,2 km/h (1 Bft) N-NE 22 0 min 0,000 mm 0,0 UV-I 0 W/m 11,3 C 12,2 C 6,4 km/h (2 Bft)
24/06/2021 02:58 12,4 C 13,9 C 12,4 C 12,4 C 12,8 C 93 % 85 cb 1020,8 hPa 0,0 mm 3,2 km/h (1 Bft) N-NE 22 0 min 0,000 mm 0,0 UV-I 0 W/m 11,3 C 12,4 C 6,4 km/h (2 Bft)
24/06/2021 01:58 12,6 C 13,9 C 12,6 C 12,6 C 12,8 C 92 % 85 cb 1021,2 hPa 0,0 mm 3,2 km/h (1 Bft) N-NE 22 0 min 0,000 mm 0,0 UV-I 0 W/m 11,3 C 12,6 C 8,0 km/h (2 Bft)
24/06/2021 00:58 12,8 C 13,9 C 12,8 C 12,8 C 12,8 C 92 % 85 cb 1021,2 hPa 0,0 mm 3,2 km/h (1 Bft) NE 45 0 min 0,000 mm 0,0 UV-I 0 W/m 11,5 C 12,8 C 8,0 km/h (2 Bft)
23/06/2021 23:58 12,9 C 14,4 C 12,9 C 12,9 C 13,3 C 91 % 85 cb 1021,0 hPa 0,0 mm 3,2 km/h (1 Bft) N 360 0 min 0,000 mm 0,0 UV-I 0 W/m 11,5 C 12,9 C 4,8 km/h (1 Bft)
23/06/2021 22:58 13,1 C 14,4 C 13,1 C 13,1 C 13,3 C 91 % 84 cb 1020,8 hPa 0,0 mm 3,2 km/h (1 Bft) NE 45 0 min 0,000 mm 0,0 UV-I 0 W/m 11,7 C 13,1 C 6,4 km/h (2 Bft)
23/06/2021 21:58 13,3 C 15,0 C 13,3 C 13,3 C 13,3 C 91 % 84 cb 1020,6 hPa 0,0 mm 4,8 km/h (1 Bft) N-NE 22 0 min 0,025 mm 0,0 UV-I 0 W/m 11,9 C 13,3 C 8,0 km/h (2 Bft)
23/06/2021 20:58 13,7 C 15,6 C 13,7 C 13,7 C 13,9 C 90 % 85 cb 1020,6 hPa 0,0 mm 3,2 km/h (1 Bft) N-NE 22 0 min 0,051 mm 0,0 UV-I 16 W/m 12,1 C 13,7 C 6,4 km/h (2 Bft)
23/06/2021 19:58 13,9 C 16,7 C 13,9 C 13,9 C 14,4 C 88 % 87 cb 1020,7 hPa 0,0 mm 6,4 km/h (2 Bft) NE 45 0 min 0,076 mm 0,0 UV-I 35 W/m 11,9 C 13,9 C 9,7 km/h (2 Bft)
23/06/2021 18:58 14,0 C 18,3 C 13,9 C 14,0 C 14,4 C 89 % 88 cb 1020,8 hPa 0,0 mm 8,0 km/h (2 Bft) NE 45 0 min 0,102 mm 0,5 UV-I 98 W/m 12,2 C 13,1 C 12,9 km/h (3 Bft)
23/06/2021 17:58 13,8 C 19,4 C 13,8 C 13,8 C 14,4 C 88 % 89 cb 1020,8 hPa 0,2 mm 9,7 km/h (2 Bft) NE 45 40 min 0,102 mm 0,7 UV-I 125 W/m 11,8 C 11,9 C 12,9 km/h (3 Bft)
23/06/2021 16:58 13,6 C 20,0 C 13,6 C 13,6 C 14,4 C 90 % 89 cb 1020,8 hPa 0,0 mm 11,3 km/h (2 Bft) E-NE 67 36 min 0,102 mm 1,2 UV-I 179 W/m 12,0 C 11,0 C 16,1 km/h (3 Bft)
23/06/2021 15:58 13,1 C 20,0 C 13,1 C 13,2 C 13,9 C 92 % 89 cb 1021,0 hPa 0,0 mm 8,0 km/h (2 Bft) E-NE 67 48 min 0,076 mm 1,5 UV-I 197 W/m 11,8 C 12,1 C 11,3 km/h (2 Bft)
23/06/2021 14:58 12,4 C 18,3 C 12,4 C 12,4 C 13,3 C 95 % 89 cb 1021,2 hPa 0,0 mm 11,3 km/h (2 Bft) NE 45 11 min 0,051 mm 1,1 UV-I 128 W/m 11,6 C 9,6 C 14,5 km/h (3 Bft)
23/06/2021 13:58 11,8 C 16,1 C 11,8 C 11,8 C 12,2 C 96 % 87 cb 1021,0 hPa 0,0 mm 12,9 km/h (3 Bft) NE 45 0 min 0,051 mm 0,7 UV-I 88 W/m 11,2 C 8,2 C 17,7 km/h (3 Bft)
23/06/2021 12:58 11,8 C 16,1 C 11,8 C 11,8 C 12,2 C 96 % 87 cb 1020,7 hPa 0,0 mm 11,3 km/h (2 Bft) NE 45 0 min 0,051 mm 0,8 UV-I 95 W/m 11,2 C 8,9 C 14,5 km/h (3 Bft)
23/06/2021 11:58 11,7 C 16,1 C 11,7 C 11,7 C 12,2 C 97 % 87 cb 1020,6 hPa 0,0 mm 11,3 km/h (2 Bft) NE 45 0 min 0,051 mm 0,7 UV-I 91 W/m 11,2 C 8,8 C 16,1 km/h (3 Bft)
23/06/2021 10:58 11,5 C 15,6 C 11,5 C 11,5 C 12,2 C 97 % 87 cb 1020,5 hPa 0,0 mm 9,7 km/h (2 Bft) NE 45 0 min 0,051 mm 0,6 UV-I 88 W/m 11,0 C 9,4 C 14,5 km/h (3 Bft)
23/06/2021 09:58 11,3 C 15,0 C 11,3 C 11,3 C 12,2 C 98 % 87 cb 1020,4 hPa 0,0 mm 14,5 km/h (3 Bft) NE 45 0 min 0,025 mm 0,0 UV-I 63 W/m 11,0 C 6,9 C 17,7 km/h (3 Bft)
23/06/2021 08:58 10,9 C 14,4 C 10,9 C 10,9 C 11,7 C 98 % 85 cb 1020,2 hPa 0,0 mm 9,7 km/h (2 Bft) E-NE 67 0 min 0,000 mm 0,0 UV-I 67 W/m 10,6 C 8,8 C 9,7 km/h (2 Bft)
23/06/2021 07:58 10,8 C 12,8 C 10,8 C 10,8 C 11,1 C 98 % 85 cb 1019,9 hPa 0,0 mm 6,4 km/h (2 Bft) E-NE 67 0 min 0,000 mm 0,0 UV-I 21 W/m 10,5 C 10,8 C 9,7 km/h (2 Bft)
23/06/2021 06:58 10,8 C 12,8 C 10,8 C 10,8 C 11,1 C 98 % 84 cb 1019,5 hPa 0,0 mm 11,3 km/h (2 Bft) NE 45 0 min 0,000 mm 0,0 UV-I 7 W/m 10,5 C 7,8 C 12,9 km/h (3 Bft)
23/06/2021 05:58 10,7 C 12,8 C 10,7 C 10,7 C 11,1 C 98 % 82 cb 1019,2 hPa 0,0 mm 14,5 km/h (3 Bft) E-NE 67 0 min 0,000 mm 0,0 UV-I 0 W/m 10,4 C 6,2 C 19,3 km/h (3 Bft)
23/06/2021 04:58 10,8 C 12,8 C 10,8 C 10,8 C 11,1 C 98 % 80 cb 1018,8 hPa 0,2 mm 8,0 km/h (2 Bft) NE 45 0 min 0,000 mm 0,0 UV-I 0 W/m 10,5 C 9,7 C 9,7 km/h (2 Bft)
23/06/2021 04:00 10,9 C 12,8 C 10,9 C 10,9 C 11,1 C 98 % 86 cb 1018,9 hPa 0,0 mm 9,7 km/h (2 Bft) NE 45 0 min 0,000 mm 0,0 UV-I 0 W/m 10,6 C 8,8 C 14,5 km/h (3 Bft)
_ Min-Heure 05:31 04:00 05:31 05:32 04:00 17:12 04:47 04:04 - 01:35 - - - - - - 05:31 08:33 02:05
Minimum _ 10,7 C 12,8 C 10,7 C 10,7 C 11,1 C 88 % 80 cb 1018,8 hPa - 0,0 km/h (0 Bft) - - - - - - 10,4 C 5,7 C 0,0 km/h (0 Bft)
_ Max-Heure 18:31 15:41 18:34 18:31 17:22 04:00 15:44 01:21 04:15 08:33 - - 14:42 16:00 15:38 15:39 18:56 18:31 08:32
Maximum _ 14,0 C 20,6 C 14,0 C 14,0 C 15,0 C 98 % 90 cb 1021,3 hPa 0,2 mm 16,1 km/h
E-NE (3 Bft)
- - 1 min 0,102 mm 2,6 UV-I 336 W/m 12,2 C 14,0 C 29,0 km/h
NE (5 Bft)
Moyenne _ 12,2 C 15,3 C 12,2 C 12,2 C 12,6 C 94 % 86 cb 1020,4 hPa #0,4 mm 7,8 km/h (2 Bft) NE - #0 min. #0,000 mm 0,0 UV-I 0 W/m 11,3 C 10,8 C 11,3 km/h (2 Bft)